Time;durP1;ratioP1;P1;durP2;ratioP2;P2;SDS_P1;SDS_P2;PMS_P1;PMS_P2;Temp;Humidity;BMP_temperature;BMP_pressure;BME280_temperature;BME280_humidity;BME280_pressure;Samples;Min_cycle;Max_cycle;Signal;HPM_P1;HPM_P2
2023/12/21 00:00:51;;;;;;;25.63;15.17;;;;;;;-143.21;93.13;73228.47;5031565;28;20237;-87
2023/12/21 00:03:17;;;;;;;29.80;15.33;;;;;;;-143.21;90.63;73214.59;5032618;28;20199;-88
2023/12/21 00:05:44;;;;;;;26.57;15.03;;;;;;;-143.21;90.58;73204.66;5033697;28;20215;-87
2023/12/21 00:08:11;;;;;;;32.83;15.90;;;;;;;-143.21;91.81;73186.81;5036074;28;20205;-86
2023/12/21 00:10:38;;;;;;;28.10;14.90;;;;;;;-143.21;92.09;73163.00;5041731;28;20252;-90
2023/12/21 00:13:05;;;;;;;28.97;15.40;;;;;;;-143.21;90.92;73133.25;5035205;28;20231;-90
2023/12/21 00:15:34;;;;;;;29.37;16.20;;;;;;;-143.21;89.45;73147.13;5035042;28;20201;-89
2023/12/21 00:18:00;;;;;;;31.17;17.00;;;;;;;-143.21;89.44;73165.00;5034661;28;20205;-90
2023/12/21 00:20:27;;;;;;;35.20;18.97;;;;;;;-143.21;90.13;73145.16;5034573;28;20237;-89
2023/12/21 00:22:54;;;;;;;31.47;18.13;;;;;;;-143.21;89.71;73127.31;5032195;28;20253;-87
2023/12/21 00:25:21;;;;;;;33.40;19.63;;;;;;;-143.21;88.32;73111.44;5030072;28;20207;-88
2023/12/21 00:27:48;;;;;;;35.03;19.63;;;;;;;-143.21;87.61;73121.34;5033618;28;21616;-88
2023/12/21 00:30:15;;;;;;;35.40;20.30;;;;;;;-143.21;87.85;73127.31;5034344;28;20199;-88
2023/12/21 00:32:43;;;;;;;38.50;21.60;;;;;;;-143.21;88.61;73115.41;5038189;28;20210;-87
2023/12/21 00:35:10;;;;;;;42.50;24.47;;;;;;;-143.21;88.12;73097.56;5035229;28;20217;-88
2023/12/21 00:37:37;;;;;;;43.77;25.43;;;;;;;-143.21;87.44;73073.75;5032613;28;20194;-89
2023/12/21 00:40:04;;;;;;;38.87;22.57;;;;;;;-143.21;86.24;73087.63;5033129;28;20206;-88
2023/12/21 00:42:32;;;;;;;45.20;23.47;;;;;;;-143.21;86.54;73107.47;5033256;28;20272;-88
2023/12/21 00:44:59;;;;;;;40.17;22.37;;;;;;;-143.21;87.67;73097.56;5034285;28;20218;-88
2023/12/21 00:47:26;;;;;;;44.33;23.40;;;;;;;-143.21;86.85;73093.59;5033356;28;20199;-88
2023/12/21 00:49:53;;;;;;;40.80;23.47;;;;;;;-143.21;86.37;73083.66;5031677;28;20231;-88
2023/12/21 00:52:20;;;;;;;43.80;24.43;;;;;;;-143.21;85.93;73061.84;5033696;28;20218;-88
2023/12/21 00:54:47;;;;;;;46.00;26.00;;;;;;;-143.21;84.70;73083.66;5032280;28;20686;-87
2023/12/21 00:57:14;;;;;;;50.73;27.30;;;;;;;-143.21;85.50;73107.47;5032802;28;20230;-89
2023/12/21 00:59:41;;;;;;;47.73;26.20;;;;;;;-143.21;86.99;73109.44;5032325;28;20202;-88
2023/12/21 01:02:08;;;;;;;46.07;27.10;;;;;;;-143.21;87.46;73095.56;5032113;28;20238;-88
2023/12/21 01:04:35;;;;;;;48.67;27.83;;;;;;;-143.21;86.30;73085.66;5032312;28;20300;-88
2023/12/21 01:07:03;;;;;;;50.40;26.70;;;;;;;-143.21;85.72;73087.63;5030772;28;20208;-89
2023/12/21 01:09:30;;;;;;;50.03;28.00;;;;;;;-143.21;85.70;73087.63;5034354;28;20199;-90
2023/12/21 01:11:56;;;;;;;48.23;27.60;;;;;;;-143.21;85.59;73087.63;5035072;28;20203;-85
2023/12/21 01:14:24;;;;;;;46.87;25.90;;;;;;;-143.21;85.40;73085.66;5031008;28;20309;-84
2023/12/21 01:16:51;;;;;;;43.40;25.90;;;;;;;-143.21;85.52;73097.56;5030276;28;20204;-87
2023/12/21 01:19:17;;;;;;;48.40;26.27;;;;;;;-143.21;85.41;73107.47;5030756;28;20586;-85
2023/12/21 01:21:44;;;;;;;45.70;25.17;;;;;;;-143.21;85.69;73109.44;5030400;28;20235;-87
2023/12/21 01:24:12;;;;;;;45.13;24.80;;;;;;;-143.21;85.46;73101.53;5031712;28;20583;-86
2023/12/21 01:26:39;;;;;;;42.63;24.80;;;;;;;-143.21;85.46;73097.56;5030010;28;20207;-87
2023/12/21 01:29:06;;;;;;;45.37;25.53;;;;;;;-143.21;85.64;73097.56;5031204;28;20241;-88
2023/12/21 01:31:32;;;;;;;45.60;24.90;;;;;;;-143.21;85.59;73099.53;5033476;28;20202;-88
2023/12/21 01:34:01;;;;;;;45.87;25.60;;;;;;;-143.21;84.77;73113.41;5034060;28;20199;-87
2023/12/21 01:36:28;;;;;;;45.93;26.00;;;;;;;-143.21;85.12;73133.25;5037936;28;20207;-88
2023/12/21 01:38:56;;;;;;;48.97;27.70;;;;;;;-143.21;86.91;73147.13;5033532;28;20207;-87
2023/12/21 01:41:25;;;;;;;47.17;27.03;;;;;;;-143.21;87.38;73135.25;5030108;28;20314;-87
2023/12/21 01:43:51;;;;;;;48.50;27.30;;;;;;;-143.21;87.84;73119.38;5034152;28;20286;-88
2023/12/21 01:46:18;;;;;;;44.50;25.87;;;;;;;-143.21;87.67;73111.44;5029460;28;20199;-88
2023/12/21 01:48:47;;;;;;;48.93;27.50;;;;;;;-143.21;86.71;73107.47;5034932;28;20211;-88
2023/12/21 01:51:14;;;;;;;47.77;26.90;;;;;;;-143.21;86.02;73131.28;5042565;28;20202;-88
2023/12/21 01:53:41;;;;;;;50.67;27.63;;;;;;;-143.21;86.39;73129.28;5038050;28;20202;-88
2023/12/21 01:56:08;;;;;;;47.17;26.40;;;;;;;-143.21;87.38;73123.34;5032495;28;20202;-89
2023/12/21 01:58:38;;;;;;;47.87;26.40;;;;;;;-143.21;87.35;73109.44;5031551;28;20203;-90
2023/12/21 02:01:06;;;;;;;46.23;26.53;;;;;;;-143.21;87.66;73097.56;5032858;28;20223;-87
2023/12/21 02:03:34;;;;;;;46.30;26.57;;;;;;;-143.21;87.16;73091.59;5029559;28;20588;-87
2023/12/21 02:06:00;;;;;;;49.07;26.27;;;;;;;-143.21;86.48;73095.56;5031703;28;20203;-86
2023/12/21 02:08:28;;;;;;;50.77;27.73;;;;;;;-143.21;85.96;73125.31;5033521;28;20199;-88
2023/12/21 02:10:57;;;;;;;51.40;27.80;;;;;;;-143.21;86.77;73139.22;5044744;28;20214;-88
2023/12/21 02:13:24;;;;;;;52.03;28.37;;;;;;;-143.21;87.77;73135.25;5039286;28;20219;-88
2023/12/21 02:15:54;;;;;;;50.20;29.33;;;;;;;-143.21;88.40;73123.34;5031472;28;20199;-89
2023/12/21 02:18:22;;;;;;;53.57;29.47;;;;;;;-143.21;87.27;73109.44;5031186;28;20224;-88
2023/12/21 02:20:50;;;;;;;54.60;29.30;;;;;;;-143.21;86.69;73101.53;5030815;28;20203;-88
2023/12/21 02:23:20;;;;;;;56.93;31.07;;;;;;;-143.21;86.53;73109.44;5029890;28;20203;-89
2023/12/21 02:25:49;;;;;;;52.77;30.83;;;;;;;-143.21;86.36;73099.53;5030031;28;20643;-88
2023/12/21 02:28:16;;;;;;;57.17;30.07;;;;;;;-143.21;86.36;73109.44;5030067;28;20214;-90
2023/12/21 02:30:43;;;;;;;53.10;29.63;;;;;;;-143.21;86.02;73105.47;5031377;28;20640;-89
2023/12/21 02:33:10;;;;;;;51.13;30.20;;;;;;;-143.21;85.40;73101.53;5031814;28;20202;-87
2023/12/21 02:35:36;;;;;;;52.70;30.23;;;;;;;-143.21;85.85;73115.41;5024190;28;20261;-83
2023/12/21 02:38:03;;;;;;;56.20;31.10;;;;;;;-143.21;85.58;73121.34;5017799;28;20203;-84
2023/12/21 02:40:30;;;;;;;50.03;28.80;;;;;;;-143.21;86.09;73131.28;5029388;28;20638;-83
2023/12/21 02:42:58;;;;;;;53.90;30.53;;;;;;;-143.21;85.99;73121.34;5028136;28;20774;-82
2023/12/21 02:45:25;;;;;;;54.97;30.47;;;;;;;-143.21;86.12;73121.34;5023888;28;20693;-80
2023/12/21 02:47:52;;;;;;;57.20;31.10;;;;;;;-143.21;85.93;73119.38;5026959;28;20261;-81
2023/12/21 02:50:19;;;;;;;53.97;29.70;;;;;;;-143.21;85.61;73141.19;5026940;28;21614;-81
2023/12/21 02:52:45;;;;;;;55.13;30.30;;;;;;;-143.21;85.90;73149.13;5029004;28;20210;-79
2023/12/21 02:55:12;;;;;;;52.40;29.07;;;;;;;-143.21;85.27;73157.06;5026893;28;20206;-80
2023/12/21 02:57:39;;;;;;;55.70;30.47;;;;;;;-143.21;84.85;73168.97;5027978;28;20213;-82
2023/12/21 03:00:09;;;;;;;54.37;30.03;;;;;;;-143.21;86.92;73180.88;5027255;28;20205;-82
2023/12/21 03:02:36;;;;;;;51.87;30.50;;;;;;;-143.21;88.18;73186.81;5027578;28;20260;-80
2023/12/21 03:05:02;;;;;;;54.77;30.30;;;;;;;-143.21;89.22;73182.84;5025091;28;20642;-80
2023/12/21 03:07:29;;;;;;;50.23;26.63;;;;;;;-143.21;88.61;73178.88;5026077;28;20222;-79
2023/12/21 03:09:56;;;;;;;45.67;26.43;;;;;;;-143.21;88.33;73159.03;5023644;28;20207;-81
2023/12/21 03:12:23;;;;;;;50.87;26.57;;;;;;;-143.21;87.15;73172.94;5027617;28;20298;-81
2023/12/21 03:14:50;;;;;;;40.40;23.20;;;;;;;-143.21;87.61;73180.88;5028788;28;20272;-82
2023/12/21 03:17:18;;;;;;;39.13;22.77;;;;;;;-143.21;88.71;73168.97;5026284;28;20210;-80
2023/12/21 03:19:45;;;;;;;36.83;20.80;;;;;;;-143.21;88.25;73161.03;5027006;28;20234;-80
2023/12/21 03:22:12;;;;;;;36.07;21.23;;;;;;;-143.21;88.51;73145.16;5028030;28;20230;-82
2023/12/21 03:24:39;;;;;;;37.23;21.57;;;;;;;-143.21;87.73;73137.22;5029362;28;20203;-82
2023/12/21 03:27:09;;;;;;;35.80;21.23;;;;;;;-143.21;87.27;73127.31;5028069;28;20203;-83
2023/12/21 03:29:36;;;;;;;36.17;21.77;;;;;;;-143.21;86.38;73125.31;5027959;28;20225;-82
2023/12/21 03:32:04;;;;;;;42.50;22.73;;;;;;;-143.21;86.23;73115.41;5027450;28;20203;-82
2023/12/21 03:34:32;;;;;;;41.20;24.10;;;;;;;-143.21;86.14;73117.38;5029155;28;20207;-81
2023/12/21 03:36:57;;;;;;;47.70;26.47;;;;;;;-143.21;86.25;73119.38;5031228;28;20199;-81
2023/12/21 03:39:24;;;;;;;43.93;24.73;;;;;;;-143.21;86.26;73133.25;5032182;28;20225;-82
2023/12/21 03:41:51;;;;;;;44.10;25.03;;;;;;;-143.21;86.72;73145.16;5027682;28;20222;-82
2023/12/21 03:44:18;;;;;;;41.63;23.10;;;;;;;-143.21;86.77;73143.16;5031856;28;20217;-82
2023/12/21 03:46:44;;;;;;;42.60;25.10;;;;;;;-143.21;86.93;73153.09;5033786;28;20855;-82
2023/12/21 03:49:11;;;;;;;36.77;22.10;;;;;;;-143.21;87.27;73163.00;5033340;28;20209;-83
2023/12/21 03:51:39;;;;;;;38.20;21.53;;;;;;;-143.21;85.95;73139.22;5039708;28;20721;-83
2023/12/21 03:54:07;;;;;;;36.00;20.50;;;;;;;-143.21;85.80;73153.09;5031909;28;20616;-83
2023/12/21 03:56:34;;;;;;;38.27;21.03;;;;;;;-143.21;86.38;73155.06;5032311;28;21156;-83
2023/12/21 03:59:00;;;;;;;34.60;19.97;;;;;;;-143.21;87.88;73157.06;5032807;28;20203;-82
2023/12/21 04:01:29;;;;;;;42.90;21.60;;;;;;;-143.21;87.43;73163.00;5030761;28;20685;-81
2023/12/21 04:03:56;;;;;;;38.67;21.00;;;;;;;-143.21;87.38;73155.06;5031882;28;20209;-81
2023/12/21 04:06:23;;;;;;;34.63;19.30;;;;;;;-143.21;87.47;73145.16;5033497;28;20696;-89
2023/12/21 04:08:54;;;;;;;33.00;19.57;;;;;;;-143.21;86.04;73137.22;5038559;28;20206;-86
2023/12/21 04:11:20;;;;;;;30.40;17.93;;;;;;;-143.21;85.51;73145.16;5039390;28;20680;-88
2023/12/21 04:13:48;;;;;;;36.50;19.63;;;;;;;-143.21;86.55;73145.16;5031983;28;20222;-88
2023/12/21 04:16:15;;;;;;;33.43;17.20;;;;;;;-143.21;86.73;73149.13;5037753;28;20276;-89
2023/12/21 04:18:42;;;;;;;31.07;16.57;;;;;;;-143.21;86.34;73147.13;5038902;28;20220;-89
2023/12/21 04:21:09;;;;;;;37.10;17.60;;;;;;;-143.21;85.85;73141.19;5038641;28;20207;-84
2023/12/21 04:23:36;;;;;;;29.07;15.80;;;;;;;-143.21;86.06;73147.13;5035017;28;20222;-87
2023/12/21 04:26:05;;;;;;;27.87;16.03;;;;;;;-143.21;85.40;73135.25;5037215;28;20310;-86
2023/12/21 04:28:31;;;;;;;29.33;16.50;;;;;;;-143.21;85.58;73135.25;5029205;28;20206;-86
2023/12/21 04:30:58;;;;;;;27.93;16.70;;;;;;;-143.21;85.66;73133.25;5033770;28;20603;-87
2023/12/21 04:33:25;;;;;;;29.20;17.50;;;;;;;-143.21;85.48;73133.25;5036916;28;20198;-87
2023/12/21 04:35:52;;;;;;;27.70;16.47;;;;;;;-143.21;85.22;73135.25;5042209;28;20202;-85
2023/12/21 04:38:19;;;;;;;29.13;15.70;;;;;;;-143.21;85.41;73135.25;5044753;28;20207;-85
2023/12/21 04:40:46;;;;;;;29.13;16.43;;;;;;;-143.21;85.05;73133.25;5045363;28;20214;-86
2023/12/21 04:43:14;;;;;;;26.40;15.10;;;;;;;-143.21;85.25;73137.22;5039299;28;20604;-87
2023/12/21 04:45:42;;;;;;;24.97;13.93;;;;;;;-143.21;84.65;73123.34;5035209;28;20651;-85
2023/12/21 04:48:09;;;;;;;24.73;14.27;;;;;;;-143.21;84.04;73125.31;5038704;28;20198;-85
2023/12/21 04:50:35;;;;;;;26.27;14.83;;;;;;;-143.21;84.62;73143.16;5043456;28;20202;-85
2023/12/21 04:53:02;;;;;;;25.60;14.60;;;;;;;-143.21;84.74;73137.22;5036330;28;20213;-84
2023/12/21 04:55:29;;;;;;;25.10;13.90;;;;;;;-143.21;84.66;73125.31;5024044;28;20208;-77
2023/12/21 04:57:56;;;;;;;26.20;14.50;;;;;;;-143.21;83.99;73125.31;5019306;28;20207;-77
2023/12/21 05:00:25;;;;;;;27.23;14.60;;;;;;;-143.21;84.51;73153.09;5021893;28;20237;-76
2023/12/21 05:02:52;;;;;;;21.40;13.27;;;;;;;-143.21;84.84;73141.19;5025813;28;20235;-77
2023/12/21 05:05:21;;;;;;;23.73;13.40;;;;;;;-143.21;84.96;73137.22;5021721;28;20317;-77
2023/12/21 05:07:47;;;;;;;23.07;13.63;;;;;;;-143.21;84.54;73129.28;5017521;28;20281;-77
2023/12/21 05:10:15;;;;;;;23.10;13.07;;;;;;;-143.21;84.44;73131.28;5025600;28;20218;-77
2023/12/21 05:12:41;;;;;;;22.27;13.17;;;;;;;-143.21;84.61;73129.28;5026279;28;20561;-76
2023/12/21 05:15:09;;;;;;;20.80;12.13;;;;;;;-143.21;84.33;73135.25;5028973;28;20634;-78
2023/12/21 05:17:38;;;;;;;22.07;12.97;;;;;;;-143.21;84.57;73141.19;5026079;28;20215;-77
2023/12/21 05:20:07;;;;;;;23.40;13.33;;;;;;;-143.21;84.89;73149.13;5025621;28;20198;-77
2023/12/21 05:22:34;;;;;;;22.10;13.13;;;;;;;-143.21;84.82;73153.09;5022185;28;20781;-77
2023/12/21 05:25:03;;;;;;;24.80;13.33;;;;;;;-143.21;84.83;73157.06;5023620;28;20199;-77
2023/12/21 05:27:29;;;;;;;24.37;12.63;;;;;;;-143.21;84.55;73143.16;5026011;28;20329;-77
2023/12/21 05:29:56;;;;;;;19.67;12.07;;;;;;;-143.21;83.67;73139.22;5024339;28;20203;-78
2023/12/21 05:32:23;;;;;;;19.27;12.30;;;;;;;-143.21;83.94;73149.13;5023154;28;20195;-76
2023/12/21 05:34:51;;;;;;;23.23;12.73;;;;;;;-143.21;84.29;73149.13;5022938;28;20194;-76
2023/12/21 05:37:18;;;;;;;24.03;14.03;;;;;;;-143.21;84.48;73157.06;5026608;28;20230;-76
2023/12/21 05:39:48;;;;;;;21.87;12.40;;;;;;;-143.21;83.55;73135.25;5023387;28;20214;-76
2023/12/21 05:42:15;;;;;;;21.40;12.07;;;;;;;-143.21;83.25;73143.16;5024147;28;20226;-76
2023/12/21 05:44:55;;;;;;;22.70;13.00;;;;;;;-143.21;84.15;73147.13;5020678;28;20586;-78
2023/12/21 05:47:22;;;;;;;22.87;12.90;;;;;;;-143.21;83.99;73141.19;5024430;28;20197;-77
2023/12/21 05:49:49;;;;;;;23.53;13.73;;;;;;;-143.21;84.28;73147.13;5019803;28;20206;-76
2023/12/21 05:52:17;;;;;;;24.13;14.63;;;;;;;-143.21;84.33;73147.13;5018599;28;20278;-76
2023/12/21 05:54:47;;;;;;;25.13;15.10;;;;;;;-143.21;84.90;73149.13;5020260;28;20203;-77
2023/12/21 05:57:22;;;;;;;24.77;14.13;;;;;;;-143.21;83.71;73141.19;5024012;28;20199;-79
2023/12/21 05:59:49;;;;;;;23.27;13.43;;;;;;;-143.21;84.25;73159.03;5023077;28;20217;-77
2023/12/21 06:02:15;;;;;;;27.63;14.43;;;;;;;-143.21;85.50;73166.97;5022970;28;20226;-77
2023/12/21 06:04:42;;;;;;;26.27;14.23;;;;;;;-143.21;86.40;73159.03;5025365;28;20211;-78
2023/12/21 06:07:09;;;;;;;24.27;14.17;;;;;;;-143.21;86.25;73151.09;5025187;28;20198;-77
2023/12/21 06:09:37;;;;;;;22.93;13.93;;;;;;;-143.21;85.12;73133.25;5026317;28;20276;-77
2023/12/21 06:12:04;;;;;;;22.53;12.20;;;;;;;-143.21;84.04;73135.25;5027839;28;20205;-78
2023/12/21 06:14:31;;;;;;;29.87;13.87;;;;;;;-143.21;84.11;73135.25;5024246;28;20700;-76
2023/12/21 06:16:58;;;;;;;25.63;14.03;;;;;;;-143.21;83.51;73133.25;5019368;28;20211;-76
2023/12/21 06:19:25;;;;;;;27.80;14.80;;;;;;;-143.21;83.31;73117.38;5020911;28;20211;-77
2023/12/21 06:21:53;;;;;;;24.97;13.83;;;;;;;-143.21;83.44;73121.34;5027952;28;20213;-77
2023/12/21 06:24:20;;;;;;;26.80;15.00;;;;;;;-143.21;83.65;73129.28;5024402;28;20231;-78
2023/12/21 06:26:48;;;;;;;28.97;15.73;;;;;;;-143.21;83.46;73131.28;5016064;28;20230;-78
2023/12/21 06:29:15;;;;;;;25.00;13.47;;;;;;;-143.21;83.25;73135.25;5025896;28;20215;-77
2023/12/21 06:31:41;;;;;;;23.83;13.97;;;;;;;-143.21;83.56;73127.31;5019780;28;20261;-78
2023/12/21 06:34:08;;;;;;;23.00;13.20;;;;;;;-143.21;83.28;73129.28;5017024;28;20203;-77
2023/12/21 06:36:35;;;;;;;21.53;12.30;;;;;;;-143.21;82.38;73125.31;5011803;28;20214;-78
2023/12/21 06:39:02;;;;;;;21.80;12.13;;;;;;;-143.21;82.59;73121.34;5020299;28;20206;-77
2023/12/21 06:41:29;;;;;;;25.13;13.83;;;;;;;-143.21;81.89;73109.44;5016858;28;20206;-77
2023/12/21 06:43:58;;;;;;;23.13;13.13;;;;;;;-143.21;81.54;73119.38;5027062;28;20241;-77
2023/12/21 06:46:24;;;;;;;23.00;13.43;;;;;;;-143.21;82.49;73125.31;5023076;28;20640;-77
2023/12/21 06:48:51;;;;;;;22.33;12.10;;;;;;;-143.21;82.84;73139.22;5016659;28;20227;-77
2023/12/21 06:51:18;;;;;;;20.50;12.10;;;;;;;-143.21;81.85;73129.28;5024377;28;20291;-76
2023/12/21 06:53:45;;;;;;;23.27;12.60;;;;;;;-143.21;81.44;73115.41;5022699;28;20211;-77
2023/12/21 06:56:12;;;;;;;26.60;14.37;;;;;;;-143.21;80.76;73103.50;5016699;28;20582;-77
2023/12/21 06:58:39;;;;;;;22.03;11.87;;;;;;;-143.21;80.46;73091.59;5016956;28;20720;-76
2023/12/21 07:01:08;;;;;;;18.47;11.63;;;;;;;-143.21;80.26;73099.53;5018166;28;20209;-77
2023/12/21 07:03:35;;;;;;;19.83;10.17;;;;;;;-143.21;79.58;73097.56;5021247;28;20234;-76
2023/12/21 07:06:02;;;;;;;22.33;11.73;;;;;;;-143.21;80.20;73117.38;5026147;28;20210;-77
2023/12/21 07:08:29;;;;;;;19.90;11.43;;;;;;;-143.21;80.34;73123.34;5017275;28;20214;-78
2023/12/21 07:10:57;;;;;;;21.00;11.87;;;;;;;-143.21;80.08;73101.53;5024448;28;20218;-77
2023/12/21 07:13:24;;;;;;;21.20;11.80;;;;;;;-143.21;79.75;73099.53;5022361;28;20234;-77
2023/12/21 07:15:51;;;;;;;16.07;9.87;;;;;;;-143.21;79.31;73109.44;5031460;28;20202;-77
2023/12/21 07:18:19;;;;;;;18.37;10.73;;;;;;;-143.21;79.34;73107.47;5029958;28;20956;-78
2023/12/21 07:20:46;;;;;;;20.47;11.07;;;;;;;-143.21;79.76;73109.44;5030160;28;20223;-77
2023/12/21 07:23:12;;;;;;;18.37;10.93;;;;;;;-143.21;79.31;73111.44;5027699;28;20230;-78
2023/12/21 07:25:41;;;;;;;18.83;11.10;;;;;;;-143.21;79.78;73099.53;5028930;28;20278;-78
2023/12/21 07:28:08;;;;;;;20.03;12.30;;;;;;;-143.21;79.63;73085.66;5030583;28;20284;-78
2023/12/21 07:30:34;;;;;;;17.77;10.93;;;;;;;-143.21;78.33;73079.69;5030037;28;20213;-79
2023/12/21 07:33:01;;;;;;;18.17;11.13;;;;;;;-143.21;77.96;73077.72;5028653;28;20207;-78
2023/12/21 07:35:29;;;;;;;18.30;11.23;;;;;;;-143.21;78.11;73087.63;5028399;28;20713;-79
2023/12/21 07:37:56;;;;;;;19.03;9.57;;;;;;;-143.21;78.30;73085.66;5031194;28;20615;-78
2023/12/21 07:40:23;;;;;;;17.33;9.73;;;;;;;-143.21;78.04;73089.63;5028966;28;20213;-78
2023/12/21 07:42:49;;;;;;;17.13;9.73;;;;;;;-143.21;77.17;73069.78;5029484;28;20226;-78
2023/12/21 07:45:16;;;;;;;17.00;10.80;;;;;;;-143.21;77.19;73079.69;5027913;28;20218;-78
2023/12/21 07:47:43;;;;;;;21.00;12.27;;;;;;;-143.21;76.96;73081.69;5029580;28;20272;-77
2023/12/21 07:50:10;;;;;;;18.83;11.20;;;;;;;-143.21;76.96;73065.81;5030239;28;20210;-77
2023/12/21 07:52:38;;;;;;;23.20;12.30;;;;;;;-143.21;77.30;73065.81;5028517;28;20210;-77
2023/12/21 07:55:06;;;;;;;18.83;11.37;;;;;;;-143.21;77.40;73083.66;5029191;28;20269;-77
2023/12/21 07:57:33;;;;;;;18.10;10.00;;;;;;;-143.21;76.92;73103.50;5028444;28;20894;-78
2023/12/21 08:00:00;;;;;;;17.07;10.40;;;;;;;-143.21;77.58;73095.56;5030864;28;20285;-78
2023/12/21 08:02:27;;;;;;;16.60;10.07;;;;;;;-143.21;76.46;73093.59;5028746;28;20217;-79
2023/12/21 08:04:54;;;;;;;17.47;9.73;;;;;;;-143.21;76.22;73071.75;5028584;28;20257;-78
2023/12/21 08:07:21;;;;;;;14.53;9.13;;;;;;;-143.21;75.35;73061.84;5028318;28;20207;-79
2023/12/21 08:09:49;;;;;;;19.03;10.77;;;;;;;-143.21;74.62;73053.91;5029388;28;20218;-77
2023/12/21 08:12:16;;;;;;;21.13;12.00;;;;;;;-143.21;75.14;73061.84;5029455;28;20237;-78
2023/12/21 08:14:43;;;;;;;19.37;12.17;;;;;;;-143.21;75.58;73077.72;5027256;28;20246;-78
2023/12/21 08:17:10;;;;;;;17.07;10.87;;;;;;;-143.21;75.53;73089.63;5028150;28;20574;-78
2023/12/21 08:19:38;;;;;;;19.57;11.27;;;;;;;-143.21;75.68;73083.66;5027614;28;20214;-77
2023/12/21 08:22:05;;;;;;;19.53;11.60;;;;;;;-143.21;75.35;73083.66;5030061;28;20294;-77
2023/12/21 08:24:33;;;;;;;14.50;8.63;;;;;;;-143.21;73.76;73073.75;5028692;28;20226;-78
2023/12/21 08:27:01;;;;;;;16.03;9.20;;;;;;;-143.21;74.04;73071.75;5028566;28;20287;-78
2023/12/21 08:29:28;;;;;;;16.00;9.40;;;;;;;-143.21;74.22;73077.72;5027483;28;20677;-78
2023/12/21 08:31:55;;;;;;;15.33;8.93;;;;;;;-143.21;74.70;73095.56;5029997;28;20212;-80
2023/12/21 08:34:22;;;;;;;14.50;7.87;;;;;;;-143.21;75.11;73103.50;5031538;28;20606;-86
2023/12/21 08:36:50;;;;;;;13.97;9.00;;;;;;;-143.21;75.25;73107.47;5031212;28;20353;-85
2023/12/21 08:39:17;;;;;;;17.00;9.37;;;;;;;-143.21;75.55;73097.56;5030167;28;21714;-84
2023/12/21 08:41:44;;;;;;;16.27;9.47;;;;;;;-143.21;75.39;73085.66;5030139;28;20210;-84
2023/12/21 08:44:12;;;;;;;14.67;8.13;;;;;;;-143.21;74.83;73071.75;5032099;28;20655;-85
2023/12/21 08:46:43;;;;;;;16.00;9.20;;;;;;;-143.21;75.41;73069.78;5030719;28;20237;-85
2023/12/21 08:49:12;;;;;;;15.53;9.10;;;;;;;-143.21;74.85;73044.00;5030479;28;20733;-84
2023/12/21 08:51:39;;;;;;;12.90;8.10;;;;;;;-143.21;73.90;73034.06;5031395;28;20257;-87
2023/12/21 08:54:06;;;;;;;13.40;8.20;;;;;;;-143.21;73.90;73042.00;5031360;28;20209;-87
2023/12/21 08:56:33;;;;;;;12.37;7.73;;;;;;;-143.21;73.28;73038.03;5030324;28;20203;-86
2023/12/21 08:59:01;;;;;;;16.83;9.50;;;;;;;-143.21;73.20;73008.28;5028813;28;20289;-82
2023/12/21 09:01:30;;;;;;;11.93;7.03;;;;;;;-143.21;72.11;72984.50;5029388;28;20207;-81
2023/12/21 09:03:58;;;;;;;13.60;8.20;;;;;;;-143.21;72.36;72974.56;5023625;28;20227;-86
2023/12/21 09:06:26;;;;;;;14.17;8.57;;;;;;;-143.21;72.28;72978.53;5029093;28;20226;-82
2023/12/21 09:08:53;;;;;;;16.00;8.20;;;;;;;-143.21;72.03;72946.81;5030343;28;20202;-85
2023/12/21 09:11:20;;;;;;;15.67;9.33;;;;;;;-143.21;71.84;72938.88;5032016;28;20231;-82
2023/12/21 09:13:47;;;;;;;14.90;9.60;;;;;;;-143.21;71.70;72938.88;5033602;28;20716;-83
2023/12/21 09:16:17;;;;;;;16.87;9.07;;;;;;;-143.21;71.73;72936.88;5038591;28;20240;-81
2023/12/21 09:18:45;;;;;;;13.13;8.37;;;;;;;-143.21;71.10;72928.94;5042091;28;20239;-83
2023/12/21 09:21:12;;;;;;;17.87;9.23;;;;;;;-143.21;71.92;72907.13;5046139;28;20204;-84
2023/12/21 09:23:40;;;;;;;15.93;8.70;;;;;;;-143.21;71.50;72883.31;5040142;28;20647;-84
2023/12/21 09:26:08;;;;;;;17.20;9.10;;;;;;;-143.21;70.65;72869.44;5041303;28;20231;-85
2023/12/21 09:28:36;;;;;;;13.73;8.30;;;;;;;-143.21;70.93;72863.50;5037953;28;20226;-85
2023/12/21 09:31:03;;;;;;;13.67;8.30;;;;;;;-143.21;70.57;72857.53;5043547;28;20208;-84
2023/12/21 09:33:33;;;;;;;16.00;9.03;;;;;;;-143.21;70.39;72849.59;5033636;28;20644;-85
2023/12/21 09:36:01;;;;;;;14.10;8.90;;;;;;;-143.21;69.81;72829.78;5043812;28;20214;-83
2023/12/21 09:38:28;;;;;;;14.23;8.30;;;;;;;-143.21;69.80;72815.88;5041790;28;20217;-82
2023/12/21 09:40:57;;;;;;;15.40;8.70;;;;;;;-143.21;69.75;72805.97;5034892;28;20202;-83
2023/12/21 09:43:24;;;;;;;17.90;10.63;;;;;;;-143.21;69.35;72807.97;5034220;28;20233;-83
2023/12/21 09:45:52;;;;;;;14.87;7.67;;;;;;;-143.21;68.70;72815.88;5027159;28;20213;-82
2023/12/21 09:48:20;;;;;;;12.23;7.63;;;;;;;-143.21;68.70;72819.84;5037000;28;20301;-79
2023/12/21 09:50:50;;;;;;;12.27;7.60;;;;;;;-143.21;68.66;72807.97;5025354;28;20250;-80
2023/12/21 09:56:48;;;;;;;11.87;7.20;;;;;;;-143.21;66.56;72647.31;4949762;28;20212;-79
2023/12/21 09:59:16;;;;;;;13.87;7.17;;;;;;;-143.21;64.01;72548.13;5022081;28;20254;-79
2023/12/21 10:01:43;;;;;;;12.00;7.83;;;;;;;-143.21;61.10;72431.13;5030701;28;20210;-82
2023/12/21 10:04:09;;;;;;;13.40;7.53;;;;;;;-143.21;59.67;72359.72;5026900;28;20504;-82
2023/12/21 10:06:40;;;;;;;11.30;6.67;;;;;;;-143.21;58.55;72322.06;5028664;28;20194;-82
2023/12/21 10:09:08;;;;;;;12.47;7.60;;;;;;;-143.21;57.71;72260.56;5033970;28;20197;-82
2023/12/21 10:11:36;;;;;;;13.30;8.17;;;;;;;-143.21;56.98;72264.53;5036904;28;20259;-82
2023/12/21 10:14:07;;;;;;;12.63;7.47;;;;;;;-143.21;57.85;72284.38;5033224;28;20235;-82
2023/12/21 10:16:35;;;;;;;11.73;7.93;;;;;;;-143.21;56.90;72234.78;5036626;28;20802;-81
2023/12/21 10:19:01;;;;;;;21.07;8.20;;;;;;;-143.21;56.31;72169.34;5033164;28;20647;-83
2023/12/21 10:21:28;;;;;;;14.63;8.13;;;;;;;-143.21;55.33;72117.78;5028763;28;20202;-83
2023/12/21 10:23:56;;;;;;;14.43;8.37;;;;;;;-143.21;53.44;72046.41;5033629;28;20234;-82
2023/12/21 10:26:23;;;;;;;10.00;7.03;;;;;;;-143.21;52.32;71996.81;5034136;28;20202;-83
2023/12/21 10:28:54;;;;;;;8.77;6.00;;;;;;;-143.21;51.24;71943.28;5037436;28;20233;-82
2023/12/21 10:31:23;;;;;;;9.43;6.60;;;;;;;-143.21;49.99;71917.50;5016229;28;20214;-84
2023/12/21 10:33:49;;;;;;;9.80;6.37;;;;;;;-143.21;49.63;71887.78;5023692;28;20649;-82
2023/12/21 10:36:16;;;;;;;10.27;6.10;;;;;;;-143.21;49.19;71881.81;5034240;28;20676;-82
2023/12/21 10:38:45;;;;;;;9.37;6.30;;;;;;;-143.21;48.87;71820.34;5043239;28;20208;-82
2023/12/21 10:41:12;;;;;;;10.03;6.90;;;;;;;-143.21;47.40;71764.81;5040837;28;20211;-79
2023/12/21 10:43:39;;;;;;;9.67;6.20;;;;;;;-143.21;47.77;71754.91;5032607;28;20256;-83
2023/12/21 10:46:06;;;;;;;16.20;6.20;;;;;;;-143.21;46.89;71725.16;5032919;28;20230;-83
2023/12/21 10:48:38;;;;;;;8.97;5.80;;;;;;;-143.21;46.32;71703.34;5033853;28;20225;-84
2023/12/21 10:51:05;;;;;;;12.67;5.70;;;;;;;-143.21;46.49;71697.41;5043118;28;20199;-82
2023/12/21 10:53:33;;;;;;;8.10;5.90;;;;;;;-143.21;45.61;71673.63;5036478;28;20202;-84
2023/12/21 10:56:02;;;;;;;12.00;7.00;;;;;;;-143.21;45.11;71683.53;5042862;28;20268;-87
2023/12/21 10:58:31;;;;;;;11.37;7.57;;;;;;;-143.21;46.08;71758.88;5041067;28;20203;-88
2023/12/21 11:01:02;;;;;;;9.23;5.80;;;;;;;-143.21;46.84;71788.63;5046033;28;20268;-88
2023/12/21 11:03:29;;;;;;;8.63;6.10;;;;;;;-143.21;46.82;71836.22;5046570;28;20321;-86
2023/12/21 11:06:00;;;;;;;10.43;6.73;;;;;;;-143.21;47.24;71873.88;5037082;28;20191;-88
2023/12/21 11:08:29;;;;;;;9.97;6.73;;;;;;;-143.21;47.81;71869.91;5044505;28;20194;-89